Time;durP1;ratioP1;P1;durP2;ratioP2;P2;SDS_P1;SDS_P2;PMS_P1;PMS_P2;Temp;Humidity;BMP_temperature;BMP_pressure;BME280_temperature;BME280_humidity;BME280_pressure;Samples;Min_cycle;Max_cycle;Signal;HPM_P1;HPM_P2
2022/07/11 00:01:20;;;;;;;6.30;1.83;;;;;;;;;;5079454;28;20388;-72
2022/07/11 00:03:46;;;;;;;6.50;1.70;;;;;;;;;;5078254;28;20027;-73
2022/07/11 00:06:12;;;;;;;6.60;1.90;;;;;;;;;;5074725;28;20071;-72
2022/07/11 00:08:38;;;;;;;8.48;2.00;;;;;;;;;;5078672;28;20031;-72
2022/07/11 00:11:04;;;;;;;8.95;2.05;;;;;;;;;;5081894;28;20362;-72
2022/07/11 00:13:30;;;;;;;7.07;2.00;;;;;;;;;;5079500;28;20028;-72
2022/07/11 00:15:56;;;;;;;10.13;2.47;;;;;;;;;;5081353;28;20219;-72
2022/07/11 00:18:23;;;;;;;11.75;2.42;;;;;;;;;;5076295;28;20035;-71
2022/07/11 00:20:50;;;;;;;8.75;2.15;;;;;;;;;;5076045;28;20032;-71
2022/07/11 00:23:16;;;;;;;8.65;1.90;;;;;;;;;;5079801;28;20574;-71
2022/07/11 00:25:42;;;;;;;7.65;1.83;;;;;;;;;;5069911;28;20043;-71
2022/07/11 00:28:08;;;;;;;8.43;2.10;;;;;;;;;;5080024;28;20024;-71
2022/07/11 00:30:35;;;;;;;7.88;1.90;;;;;;;;;;5082379;28;20491;-70
2022/07/11 00:33:01;;;;;;;8.13;1.98;;;;;;;;;;5086027;28;20066;-72
2022/07/11 00:35:27;;;;;;;6.05;1.73;;;;;;;;;;5083274;28;20792;-72
2022/07/11 00:37:53;;;;;;;8.95;2.15;;;;;;;;;;5082224;28;20880;-71
2022/07/11 00:40:19;;;;;;;8.80;2.15;;;;;;;;;;5081503;28;20040;-71
2022/07/11 00:42:45;;;;;;;7.68;1.88;;;;;;;;;;5078436;28;20394;-72
2022/07/11 00:45:12;;;;;;;9.15;1.77;;;;;;;;;;5086541;28;20028;-71
2022/07/11 00:47:38;;;;;;;8.80;1.83;;;;;;;;;;5077438;28;20114;-72
2022/07/11 00:50:04;;;;;;;7.80;2.28;;;;;;;;;;5085007;28;20159;-72
2022/07/11 00:52:30;;;;;;;7.10;1.88;;;;;;;;;;5085299;28;20031;-71
2022/07/11 00:54:56;;;;;;;6.03;1.88;;;;;;;;;;5079867;28;20035;-72
2022/07/11 00:57:23;;;;;;;4.22;1.60;;;;;;;;;;5085293;28;20032;-71
2022/07/11 00:59:49;;;;;;;10.73;2.22;;;;;;;;;;5078809;28;20024;-71
2022/07/11 01:02:15;;;;;;;7.00;2.10;;;;;;;;;;5084703;28;20027;-71
2022/07/11 01:04:41;;;;;;;6.82;1.83;;;;;;;;;;5080243;28;20023;-71
2022/07/11 01:07:08;;;;;;;6.68;2.10;;;;;;;;;;5089301;28;20120;-71
2022/07/11 01:09:34;;;;;;;9.73;2.30;;;;;;;;;;5093494;28;20252;-74
2022/07/11 01:12:04;;;;;;;9.70;1.90;;;;;;;;;;5089871;28;20107;-71
2022/07/11 01:14:30;;;;;;;8.05;2.17;;;;;;;;;;5094858;28;20126;-73
2022/07/11 01:16:56;;;;;;;7.03;1.80;;;;;;;;;;5089415;28;20267;-73
2022/07/11 01:19:22;;;;;;;7.05;1.88;;;;;;;;;;5083531;28;20035;-73
2022/07/11 01:21:50;;;;;;;10.02;2.03;;;;;;;;;;5080801;28;20031;-73
2022/07/11 01:24:16;;;;;;;7.07;2.00;;;;;;;;;;5083557;28;20709;-74
2022/07/11 01:26:42;;;;;;;7.32;1.80;;;;;;;;;;5081478;28;20141;-73
2022/07/11 01:29:10;;;;;;;8.50;2.05;;;;;;;;;;5082806;27;20033;-73
2022/07/11 01:31:38;;;;;;;8.43;2.10;;;;;;;;;;5088784;27;20027;-73
2022/07/11 01:34:04;;;;;;;6.18;1.90;;;;;;;;;;5083534;28;20039;-73
2022/07/11 01:36:31;;;;;;;7.75;2.10;;;;;;;;;;5084205;28;20043;-72
2022/07/11 01:38:57;;;;;;;7.80;1.98;;;;;;;;;;5080817;28;20034;-72
2022/07/11 01:41:23;;;;;;;5.65;1.73;;;;;;;;;;5081833;28;20040;-72
2022/07/11 01:43:49;;;;;;;7.25;1.90;;;;;;;;;;5080281;28;20032;-73
2022/07/11 01:46:16;;;;;;;6.85;1.77;;;;;;;;;;5083637;28;20023;-73
2022/07/11 01:48:42;;;;;;;7.05;1.90;;;;;;;;;;5082351;28;20516;-73
2022/07/11 01:51:09;;;;;;;10.07;2.10;;;;;;;;;;5078859;28;20074;-73
2022/07/11 01:53:35;;;;;;;8.77;1.98;;;;;;;;;;5079806;28;20036;-73
2022/07/11 01:56:01;;;;;;;5.20;1.77;;;;;;;;;;5077585;28;20555;-73
2022/07/11 01:58:30;;;;;;;6.10;1.80;;;;;;;;;;5086860;27;20087;-74
2022/07/11 02:00:57;;;;;;;6.38;1.95;;;;;;;;;;5081885;28;20027;-73
2022/07/11 02:03:23;;;;;;;6.78;2.30;;;;;;;;;;5084163;28;20032;-73
2022/07/11 02:05:49;;;;;;;6.65;2.00;;;;;;;;;;5075887;28;20028;-73
2022/07/11 02:08:15;;;;;;;6.90;1.70;;;;;;;;;;5076062;28;20039;-73
2022/07/11 02:10:47;;;;;;;5.30;1.75;;;;;;;;;;5077701;28;20027;-73
2022/07/11 02:13:14;;;;;;;7.50;1.70;;;;;;;;;;5081651;27;20479;-73
2022/07/11 02:15:41;;;;;;;5.32;1.75;;;;;;;;;;5078344;28;20527;-73
2022/07/11 02:18:07;;;;;;;8.05;1.80;;;;;;;;;;5081736;27;20375;-73
2022/07/11 02:20:34;;;;;;;9.40;1.90;;;;;;;;;;5080015;28;20044;-73
2022/07/11 02:23:00;;;;;;;10.90;1.80;;;;;;;;;;5083367;28;20023;-73
2022/07/11 02:25:27;;;;;;;7.05;1.80;;;;;;;;;;5077307;28;20035;-73
2022/07/11 02:27:53;;;;;;;7.47;1.90;;;;;;;;;;5075856;28;20937;-73
2022/07/11 02:30:19;;;;;;;6.00;2.03;;;;;;;;;;5074596;28;20028;-73
2022/07/11 02:32:47;;;;;;;6.40;2.00;;;;;;;;;;5078048;28;20472;-73
2022/07/11 02:35:15;;;;;;;8.30;2.15;;;;;;;;;;5075956;28;20450;-73
2022/07/11 02:37:43;;;;;;;8.07;1.90;;;;;;;;;;5079284;28;20120;-74
2022/07/11 02:40:11;;;;;;;7.68;1.73;;;;;;;;;;5078053;28;20181;-73
2022/07/11 02:42:40;;;;;;;8.32;1.77;;;;;;;;;;5071394;28;20024;-73
2022/07/11 02:45:08;;;;;;;6.40;1.88;;;;;;;;;;5081792;27;20033;-73
2022/07/11 02:47:36;;;;;;;8.73;2.10;;;;;;;;;;5079454;27;20039;-73
2022/07/11 02:50:03;;;;;;;6.10;1.77;;;;;;;;;;5082669;28;20483;-73
2022/07/11 02:52:32;;;;;;;6.60;1.80;;;;;;;;;;5084239;28;20502;-73
2022/07/11 02:55:01;;;;;;;5.45;1.67;;;;;;;;;;5076586;28;20024;-73
2022/07/11 02:57:28;;;;;;;5.55;1.70;;;;;;;;;;5075529;28;20043;-73
2022/07/11 02:59:56;;;;;;;7.13;1.88;;;;;;;;;;5077609;28;20038;-73
2022/07/11 03:02:25;;;;;;;5.43;1.90;;;;;;;;;;5078707;28;20356;-72
2022/07/11 03:04:52;;;;;;;5.95;1.60;;;;;;;;;;5077979;28;20043;-73
2022/07/11 03:07:20;;;;;;;8.70;1.65;;;;;;;;;;5081960;28;20036;-73
2022/07/11 03:09:47;;;;;;;7.72;1.80;;;;;;;;;;5079035;28;20031;-73
2022/07/11 03:12:15;;;;;;;6.30;1.55;;;;;;;;;;5075643;28;20067;-73
2022/07/11 03:14:43;;;;;;;8.88;1.92;;;;;;;;;;5077588;28;20036;-73
2022/07/11 03:17:10;;;;;;;7.07;1.80;;;;;;;;;;5075717;28;20115;-73
2022/07/11 03:19:37;;;;;;;4.70;1.52;;;;;;;;;;5075848;28;20128;-73
2022/07/11 03:22:05;;;;;;;6.53;1.80;;;;;;;;;;5078822;28;20032;-74
2022/07/11 03:24:33;;;;;;;7.50;2.05;;;;;;;;;;5080391;28;20039;-74
2022/07/11 03:27:00;;;;;;;5.90;1.90;;;;;;;;;;5074840;28;20150;-74
2022/07/11 03:29:27;;;;;;;6.78;1.90;;;;;;;;;;5081668;28;20595;-75
2022/07/11 03:31:54;;;;;;;7.47;1.75;;;;;;;;;;5070274;28;20035;-75
2022/07/11 03:34:22;;;;;;;5.95;1.70;;;;;;;;;;5100669;27;20036;-74
2022/07/11 03:36:49;;;;;;;4.47;1.50;;;;;;;;;;5080264;28;20112;-74
2022/07/11 03:39:15;;;;;;;6.00;1.80;;;;;;;;;;5099815;27;20457;-74
2022/07/11 03:41:43;;;;;;;7.28;1.77;;;;;;;;;;5075845;28;20027;-74
2022/07/11 03:44:12;;;;;;;7.30;1.90;;;;;;;;;;5080271;28;20123;-74
2022/07/11 03:46:39;;;;;;;5.35;1.80;;;;;;;;;;5075731;28;20028;-73
2022/07/11 03:49:05;;;;;;;6.35;1.88;;;;;;;;;;5078743;28;20545;-74
2022/07/11 03:51:33;;;;;;;6.00;1.60;;;;;;;;;;5080503;28;20039;-72
2022/07/11 03:54:00;;;;;;;6.50;1.70;;;;;;;;;;5079567;28;20032;-73
2022/07/11 03:56:27;;;;;;;6.65;2.00;;;;;;;;;;5074709;28;20032;-73
2022/07/11 03:58:54;;;;;;;8.32;2.42;;;;;;;;;;5073022;28;20481;-75
2022/07/11 04:01:21;;;;;;;7.35;1.90;;;;;;;;;;5076499;28;20101;-74
2022/07/11 04:03:49;;;;;;;7.07;2.10;;;;;;;;;;5077813;28;20370;-74
2022/07/11 04:06:16;;;;;;;7.60;1.90;;;;;;;;;;5079017;28;20542;-73
2022/07/11 04:08:44;;;;;;;8.60;2.00;;;;;;;;;;5072746;28;20028;-74
2022/07/11 04:11:11;;;;;;;7.03;2.10;;;;;;;;;;5083537;28;20090;-72
2022/07/11 04:13:39;;;;;;;6.65;2.20;;;;;;;;;;5055497;28;20133;-72
2022/07/11 04:16:07;;;;;;;6.90;2.35;;;;;;;;;;5079575;28;20030;-73
2022/07/11 04:18:34;;;;;;;12.10;2.20;;;;;;;;;;5081969;28;20419;-72
2022/07/11 04:21:00;;;;;;;10.77;2.42;;;;;;;;;;5077362;28;20483;-74
2022/07/11 04:23:28;;;;;;;7.00;2.17;;;;;;;;;;5075625;28;20562;-73
2022/07/11 04:25:54;;;;;;;8.77;2.00;;;;;;;;;;5074189;28;21371;-73
2022/07/11 04:28:21;;;;;;;8.45;2.20;;;;;;;;;;5078793;28;20028;-73
2022/07/11 04:30:48;;;;;;;8.88;2.53;;;;;;;;;;5074972;28;20035;-73
2022/07/11 04:33:15;;;;;;;7.90;2.22;;;;;;;;;;5078552;28;20032;-73
2022/07/11 04:35:43;;;;;;;8.93;2.33;;;;;;;;;;5078019;28;20134;-73
2022/07/11 04:38:09;;;;;;;7.90;2.30;;;;;;;;;;5077093;28;20036;-72
2022/07/11 04:40:36;;;;;;;9.68;2.17;;;;;;;;;;5080157;28;20076;-72
2022/07/11 04:43:04;;;;;;;7.28;2.30;;;;;;;;;;5073461;28;20140;-75
2022/07/11 04:45:32;;;;;;;8.55;2.25;;;;;;;;;;5077833;28;20135;-72
2022/07/11 04:48:01;;;;;;;10.48;2.97;;;;;;;;;;5068284;28;20123;-72
2022/07/11 04:50:29;;;;;;;8.57;2.63;;;;;;;;;;5076598;28;20454;-72
2022/07/11 04:52:56;;;;;;;10.35;2.38;;;;;;;;;;5076697;28;20035;-72
2022/07/11 04:55:24;;;;;;;11.27;2.72;;;;;;;;;;5081870;28;20024;-72
2022/07/11 04:57:52;;;;;;;11.70;2.50;;;;;;;;;;5073903;28;20723;-72
2022/07/11 05:00:20;;;;;;;10.85;2.40;;;;;;;;;;5076522;28;20027;-74
2022/07/11 05:02:47;;;;;;;8.30;2.47;;;;;;;;;;5073866;28;20032;-73
2022/07/11 05:05:15;;;;;;;11.18;2.40;;;;;;;;;;5076009;28;20023;-73
2022/07/11 05:07:43;;;;;;;10.90;3.05;;;;;;;;;;5074835;28;20028;-73
2022/07/11 05:10:10;;;;;;;8.38;3.10;;;;;;;;;;5078611;28;20440;-72
2022/07/11 05:12:38;;;;;;;12.93;3.30;;;;;;;;;;5068913;28;20058;-73
2022/07/11 05:15:06;;;;;;;9.38;3.13;;;;;;;;;;5077633;28;20563;-72
2022/07/11 05:17:34;;;;;;;11.68;3.50;;;;;;;;;;5076754;28;20028;-73
2022/07/11 05:20:01;;;;;;;11.43;3.75;;;;;;;;;;5073661;27;20332;-71
2022/07/11 05:22:28;;;;;;;10.38;3.80;;;;;;;;;;5073131;28;20045;-73
2022/07/11 05:24:56;;;;;;;75.18;6.43;;;;;;;;;;5090312;27;20039;-73
2022/07/11 05:27:23;;;;;;;65.53;6.60;;;;;;;;;;5074849;28;20324;-73
2022/07/11 05:29:51;;;;;;;51.83;5.85;;;;;;;;;;5069625;28;20546;-73
2022/07/11 05:32:17;;;;;;;47.03;5.82;;;;;;;;;;5095411;27;20028;-73
2022/07/11 05:34:44;;;;;;;21.52;3.17;;;;;;;;;;5069792;28;20360;-73
2022/07/11 05:37:10;;;;;;;15.50;2.45;;;;;;;;;;5077223;28;20050;-73
2022/07/11 05:39:38;;;;;;;10.68;2.17;;;;;;;;;;5072528;28;20024;-73
2022/07/11 05:42:05;;;;;;;9.63;2.40;;;;;;;;;;5073732;28;20562;-73
2022/07/11 05:44:33;;;;;;;9.38;2.30;;;;;;;;;;5073985;28;20541;-72
2022/07/11 05:47:01;;;;;;;8.13;2.22;;;;;;;;;;5069636;28;20035;-73
2022/07/11 05:49:29;;;;;;;10.07;2.20;;;;;;;;;;5074224;28;20087;-73
2022/07/11 05:51:56;;;;;;;11.38;2.38;;;;;;;;;;5091930;27;21040;-73
2022/07/11 05:54:24;;;;;;;9.70;2.65;;;;;;;;;;5075351;28;20035;-73
2022/07/11 05:56:51;;;;;;;12.32;2.97;;;;;;;;;;5070656;28;20038;-73
2022/07/11 05:59:19;;;;;;;16.80;3.92;;;;;;;;;;5070496;28;20463;-73
2022/07/11 06:01:46;;;;;;;10.15;3.08;;;;;;;;;;5071014;28;20036;-72
2022/07/11 06:04:13;;;;;;;15.25;3.63;;;;;;;;;;5078023;28;20349;-73
2022/07/11 06:06:40;;;;;;;12.65;3.20;;;;;;;;;;5073919;28;20039;-73
2022/07/11 06:09:07;;;;;;;10.10;3.10;;;;;;;;;;5078263;28;20089;-73
2022/07/11 06:11:34;;;;;;;11.90;3.20;;;;;;;;;;5074640;28;20054;-73
2022/07/11 06:14:02;;;;;;;8.80;3.30;;;;;;;;;;5075018;28;20055;-73
2022/07/11 06:16:29;;;;;;;9.52;2.53;;;;;;;;;;5072177;28;20464;-73
2022/07/11 06:18:55;;;;;;;9.07;2.75;;;;;;;;;;5072716;28;20082;-73
2022/07/11 06:21:23;;;;;;;11.38;2.80;;;;;;;;;;5072563;28;20134;-74
2022/07/11 06:23:51;;;;;;;9.05;2.67;;;;;;;;;;5068791;28;20095;-74
2022/07/11 06:26:18;;;;;;;8.50;2.17;;;;;;;;;;5075154;28;20051;-73
2022/07/11 06:28:46;;;;;;;9.48;2.30;;;;;;;;;;5073702;27;20079;-73
2022/07/11 06:31:19;;;;;;;8.93;2.72;;;;;;;;;;5070360;28;20848;-73
2022/07/11 06:33:54;;;;;;;9.43;2.25;;;;;;;;;;5074092;28;20027;-73
2022/07/11 06:36:24;;;;;;;8.00;2.67;;;;;;;;;;5072835;28;20031;-73
2022/07/11 06:38:52;;;;;;;9.55;2.40;;;;;;;;;;5067827;28;20488;-73
2022/07/11 06:41:20;;;;;;;7.10;2.13;;;;;;;;;;5096789;27;20540;-73
2022/07/11 06:43:48;;;;;;;7.50;2.20;;;;;;;;;;5069044;28;20030;-73
2022/07/11 06:46:16;;;;;;;7.82;2.05;;;;;;;;;;5078657;28;20270;-75
2022/07/11 06:48:42;;;;;;;5.85;1.80;;;;;;;;;;5067335;28;20310;-74
2022/07/11 06:51:10;;;;;;;8.73;1.95;;;;;;;;;;5073670;28;20808;-75
2022/07/11 06:53:37;;;;;;;8.38;1.85;;;;;;;;;;5070601;28;20054;-75
2022/07/11 06:56:05;;;;;;;5.40;1.80;;;;;;;;;;5071436;28;20806;-74
2022/07/11 06:58:33;;;;;;;6.25;1.77;;;;;;;;;;5070817;28;20386;-74
2022/07/11 07:01:05;;;;;;;6.63;1.83;;;;;;;;;;5071207;28;20043;-74
2022/07/11 07:03:33;;;;;;;7.25;2.20;;;;;;;;;;5077499;28;20031;-74
2022/07/11 07:06:00;;;;;;;5.97;1.75;;;;;;;;;;5071737;28;20365;-75
2022/07/11 07:08:28;;;;;;;8.35;1.77;;;;;;;;;;5076587;28;20062;-75
2022/07/11 07:10:56;;;;;;;7.68;1.70;;;;;;;;;;5068986;28;20794;-74
2022/07/11 07:13:28;;;;;;;6.65;1.50;;;;;;;;;;5073533;28;20058;-73
2022/07/11 07:15:57;;;;;;;7.90;1.90;;;;;;;;;;5071601;28;20727;-71
2022/07/11 07:18:25;;;;;;;5.75;1.70;;;;;;;;;;5069260;28;20032;-73
2022/07/11 07:20:53;;;;;;;7.28;1.70;;;;;;;;;;5071596;28;20670;-74
2022/07/11 07:23:20;;;;;;;7.50;1.70;;;;;;;;;;5094866;27;20027;-73
2022/07/11 07:25:51;;;;;;;8.10;1.73;;;;;;;;;;5067515;28;20031;-72
2022/07/11 07:28:18;;;;;;;4.88;1.52;;;;;;;;;;5076659;28;20354;-72
2022/07/11 07:30:48;;;;;;;6.50;1.60;;;;;;;;;;5072780;28;20057;-73
2022/07/11 07:33:15;;;;;;;10.90;1.80;;;;;;;;;;5074215;28;20031;-73
2022/07/11 07:35:43;;;;;;;7.07;1.60;;;;;;;;;;5071115;28;20957;-71
2022/07/11 07:38:09;;;;;;;10.52;1.75;;;;;;;;;;5067624;28;20040;-73
2022/07/11 07:40:37;;;;;;;8.30;1.73;;;;;;;;;;5068082;28;20031;-72
2022/07/11 07:43:04;;;;;;;6.00;1.67;;;;;;;;;;5074667;28;20566;-72
2022/07/11 07:45:32;;;;;;;5.05;1.45;;;;;;;;;;5073173;28;20442;-72
2022/07/11 07:48:00;;;;;;;8.38;1.60;;;;;;;;;;5070976;28;20067;-71
2022/07/11 07:50:26;;;;;;;10.38;1.90;;;;;;;;;;5071821;28;20056;-73
2022/07/11 07:52:54;;;;;;;6.22;1.55;;;;;;;;;;5068294;28;20429;-73
2022/07/11 07:55:21;;;;;;;7.43;1.40;;;;;;;;;;5071513;28;20502;-71
2022/07/11 07:57:48;;;;;;;6.53;1.63;;;;;;;;;;5070736;28;20374;-73
2022/07/11 08:03:02;;;;;;;;;;;;;;;;;;5074008;28;20042;-71
2022/07/11 08:05:29;;;;;;;7.00;1.70;;;;;;;;;;5074069;28;19962;-71
2022/07/11 08:07:57;;;;;;;5.32;1.40;;;;;;;;;;5067228;28;20031;-71
2022/07/11 08:10:24;;;;;;;6.57;1.50;;;;;;;;;;5072006;28;20489;-71
2022/07/11 08:12:51;;;;;;;6.53;1.20;;;;;;;;;;5062456;28;20532;-71
2022/07/11 08:15:17;;;;;;;5.75;1.30;;;;;;;;;;5073264;28;20035;-73
2022/07/11 08:17:45;;;;;;;6.18;1.33;;;;;;;;;;5064999;28;20024;-71
2022/07/11 08:20:12;;;;;;;4.53;1.23;;;;;;;;;;5066959;28;20373;-72
2022/07/11 08:22:40;;;;;;;6.07;1.50;;;;;;;;;;5069896;28;20092;-71
2022/07/11 08:25:07;;;;;;;5.20;1.33;;;;;;;;;;5071835;28;20104;-71
2022/07/11 08:27:37;;;;;;;4.57;1.20;;;;;;;;;;5068402;28;20373;-74
2022/07/11 08:30:07;;;;;;;3.85;1.10;;;;;;;;;;5071425;28;20611;-73
2022/07/11 08:32:39;;;;;;;5.32;1.35;;;;;;;;;;5071567;28;20441;-71
2022/07/11 08:35:06;;;;;;;7.20;1.20;;;;;;;;;;5071459;28;20028;-72
2022/07/11 08:37:34;;;;;;;4.70;1.60;;;;;;;;;;5068900;28;20126;-72
2022/07/11 08:40:02;;;;;;;6.28;1.42;;;;;;;;;;5071714;28;20441;-72
2022/07/11 08:42:30;;;;;;;9.13;1.85;;;;;;;;;;5070479;28;20129;-72
2022/07/11 08:44:58;;;;;;;8.20;1.70;;;;;;;;;;5073294;28;20527;-72
2022/07/11 08:47:26;;;;;;;5.57;1.35;;;;;;;;;;5068959;28;20188;-71
2022/07/11 08:49:52;;;;;;;4.65;1.33;;;;;;;;;;5076324;28;20158;-71
2022/07/11 08:52:21;;;;;;;5.10;1.23;;;;;;;;;;5051722;28;20039;-71
2022/07/11 08:54:48;;;;;;;5.20;1.40;;;;;;;;;;5055215;28;20024;-71
2022/07/11 08:57:16;;;;;;;7.55;1.60;;;;;;;;;;5079940;27;20122;-71
2022/07/11 08:59:43;;;;;;;5.93;1.20;;;;;;;;;;5054763;28;20051;-71
2022/07/11 09:02:10;;;;;;;4.32;1.30;;;;;;;;;;5081866;27;20133;-71
2022/07/11 09:04:37;;;;;;;7.20;1.63;;;;;;;;;;5071675;28;20183;-71
2022/07/11 09:07:03;;;;;;;4.40;1.40;;;;;;;;;;5078271;27;20501;-71
2022/07/11 09:09:31;;;;;;;5.22;1.27;;;;;;;;;;5076990;27;20480;-73
2022/07/11 09:11:59;;;;;;;4.45;1.30;;;;;;;;;;5064904;28;20196;-71
2022/07/11 09:14:26;;;;;;;6.50;1.27;;;;;;;;;;5061103;28;20028;-71
2022/07/11 09:17:03;;;;;;;2.53;0.95;;;;;;;;;;5077064;27;20027;-72
2022/07/11 09:19:40;;;;;;;4.13;1.20;;;;;;;;;;5081522;27;20391;-72
2022/07/11 09:25:23;;;;;;;5.38;1.20;;;;;;;;;;5074859;27;20046;-74
2022/07/11 09:27:53;;;;;;;5.78;1.20;;;;;;;;;;5062326;28;21381;-72
2022/07/11 09:30:27;;;;;;;4.18;1.20;;;;;;;;;;5079436;28;20308;-72
2022/07/11 09:33:00;;;;;;;5.65;1.33;;;;;;;;;;5055954;28;20043;-72
2022/07/11 09:35:38;;;;;;;6.72;1.40;;;;;;;;;;5060670;28;20027;-73
2022/07/11 09:38:11;;;;;;;5.30;1.40;;;;;;;;;;5077937;28;20640;-73
2022/07/11 09:40:42;;;;;;;6.05;1.30;;;;;;;;;;5071865;27;20039;-73
2022/07/11 09:43:09;;;;;;;4.53;1.30;;;;;;;;;;5079523;27;20651;-72
2022/07/11 09:45:37;;;;;;;7.43;1.40;;;;;;;;;;5074355;27;20442;-72
2022/07/11 09:48:12;;;;;;;6.63;1.40;;;;;;;;;;5070742;28;20048;-72
2022/07/11 09:50:40;;;;;;;3.97;1.27;;;;;;;;;;5073180;27;20384;-72
2022/07/11 09:53:16;;;;;;;7.53;1.73;;;;;;;;;;5066869;27;20031;-72
2022/07/11 09:55:47;;;;;;;8.65;1.70;;;;;;;;;;5053310;28;20062;-73
2022/07/11 09:58:15;;;;;;;6.78;1.50;;;;;;;;;;5043823;28;20534;-73
2022/07/11 10:00:43;;;;;;;3.83;1.25;;;;;;;;;;5049771;28;20027;-73
2022/07/11 10:03:12;;;;;;;10.95;1.73;;;;;;;;;;5080364;27;20216;-73
2022/07/11 10:05:39;;;;;;;3.63;1.23;;;;;;;;;;5075738;27;20495;-73
2022/07/11 10:08:06;;;;;;;10.40;1.65;;;;;;;;;;5067736;28;20494;-73
2022/07/11 10:10:34;;;;;;;7.65;1.67;;;;;;;;;;5060780;28;20053;-73
2022/07/11 10:13:01;;;;;;;6.47;1.58;;;;;;;;;;5075958;27;20031;-75
2022/07/11 10:15:37;;;;;;;8.40;1.70;;;;;;;;;;5076936;27;20382;-74
2022/07/11 10:18:16;;;;;;;6.43;1.17;;;;;;;;;;5076515;27;20077;-74
2022/07/11 10:21:01;;;;;;;4.68;1.50;;;;;;;;;;5068860;28;20040;-74
2022/07/11 10:23:43;;;;;;;8.13;1.95;;;;;;;;;;5075014;27;20027;-75
2022/07/11 10:26:28;;;;;;;5.80;1.63;;;;;;;;;;5077009;28;20042;-75
2022/07/11 10:29:08;;;;;;;5.80;1.60;;;;;;;;;;5054953;28;21164;-76
2022/07/11 10:31:34;;;;;;;6.32;1.50;;;;;;;;;;5055112;28;20306;-78
2022/07/11 10:34:05;;;;;;;6.13;1.40;;;;;;;;;;5055716;28;20171;-75
2022/07/11 10:36:34;;;;;;;6.68;1.13;;;;;;;;;;5053368;27;20039;-76
2022/07/11 10:39:24;;;;;;;5.55;1.30;;;;;;;;;;5059000;28;20256;-75
2022/07/11 10:41:52;;;;;;;3.85;1.20;;;;;;;;;;5073400;28;20035;-78
2022/07/11 10:44:21;;;;;;;6.75;1.40;;;;;;;;;;5077571;27;20027;-76
2022/07/11 10:46:48;;;;;;;4.28;1.38;;;;;;;;;;5056757;28;20118;-76
2022/07/11 10:49:27;;;;;;;5.22;1.40;;;;;;;;;;5069077;27;20452;-76
2022/07/11 10:52:09;;;;;;;6.85;1.30;;;;;;;;;;5067950;27;20399;-77
2022/07/11 10:54:48;;;;;;;4.30;1.27;;;;;;;;;;5066911;27;20108;-76
2022/07/11 10:57:26;;;;;;;4.97;1.27;;;;;;;;;;5069833;27;20038;-76
2022/07/11 10:59:57;;;;;;;3.30;1.05;;;;;;;;;;5052053;28;20023;-77
2022/07/11 11:02:25;;;;;;;7.40;1.30;;;;;;;;;;5070348;27;20036;-77
2022/07/11 11:04:57;;;;;;;5.35;1.10;;;;;;;;;;5066292;27;20024;-77
2022/07/11 11:07:46;;;;;;;8.25;1.60;;;;;;;;;;5070918;28;20043;-77
2022/07/11 11:10:33;;;;;;;7.00;1.42;;;;;;;;;;5068881;27;20741;-77
2022/07/11 11:13:06;;;;;;;5.18;1.35;;;;;;;;;;5069682;27;20073;-77
2022/07/11 11:15:34;;;;;;;5.00;1.13;;;;;;;;;;5071160;28;20251;-77
2022/07/11 11:18:22;;;;;;;6.05;1.10;;;;;;;;;;5061423;28;20037;-77
2022/07/11 11:21:09;;;;;;;6.35;1.30;;;;;;;;;;5054740;27;20116;-76
2022/07/11 11:24:07;;;;;;;4.80;1.13;;;;;;;;;;5067541;27;20039;-77
2022/07/11 11:26:50;;;;;;;6.97;1.50;;;;;;;;;;4977471;28;20757;-76
2022/07/11 11:29:23;;;;;;;4.93;1.50;;;;;;;;;;4997573;28;20129;-77
2022/07/11 11:31:54;;;;;;;8.23;1.58;;;;;;;;;;4976146;28;20065;-77
2022/07/11 11:34:20;;;;;;;6.75;1.40;;;;;;;;;;4980903;28;20033;-78
2022/07/11 11:36:53;;;;;;;5.88;1.20;;;;;;;;;;4990958;28;20080;-77
2022/07/11 11:39:33;;;;;;;6.25;1.27;;;;;;;;;;4994488;28;20401;-78
2022/07/11 11:42:05;;;;;;;4.28;1.20;;;;;;;;;;4996193;28;20163;-76
2022/07/11 11:44:33;;;;;;;2.83;1.00;;;;;;;;;;4997617;28;20038;-76
2022/07/11 11:46:59;;;;;;;5.25;1.08;;;;;;;;;;4995940;28;20080;-76
2022/07/11 11:49:27;;;;;;;5.75;1.20;;;;;;;;;;4996018;28;22026;-77
2022/07/11 11:51:56;;;;;;;4.85;1.02;;;;;;;;;;4991738;28;20029;-76
2022/07/11 11:54:26;;;;;;;5.05;1.10;;;;;;;;;;4996645;28;20053;-77
2022/07/11 11:56:53;;;;;;;3.90;1.20;;;;;;;;;;4997982;28;20675;-77
2022/07/11 11:59:29;;;;;;;6.55;1.40;;;;;;;;;;4992855;28;20118;-75
2022/07/11 12:01:56;;;;;;;6.65;1.40;;;;;;;;;;4977259;28;20123;-75
2022/07/11 12:04:23;;;;;;;8.02;1.35;;;;;;;;;;5063335;28;20055;-77
2022/07/11 12:06:51;;;;;;;5.95;1.30;;;;;;;;;;5065524;28;20039;-76
2022/07/11 12:09:19;;;;;;;5.63;1.23;;;;;;;;;;5070022;28;20055;-79
2022/07/11 12:12:43;;;;;;;4.53;1.33;;;;;;;;;;5070052;28;20509;-77
2022/07/11 12:14:34;;;;;;;8.38;1.50;;;;;;;;;;5066911;28;20185;-70
2022/07/11 12:17:02;;;;;;;5.78;1.40;;;;;;;;;;5055445;28;20059;-70
2022/07/11 12:19:34;;;;;;;5.82;1.33;;;;;;;;;;5052739;28;20038;-72
2022/07/11 12:22:04;;;;;;;7.63;1.38;;;;;;;;;;5065503;28;20047;-72
2022/07/11 12:24:32;;;;;;;8.68;1.40;;;;;;;;;;5071746;27;20028;-71
2022/07/11 12:26:59;;;;;;;5.55;1.10;;;;;;;;;;5070315;27;20027;-71
2022/07/11 12:29:29;;;;;;;7.88;1.35;;;;;;;;;;5075513;28;20047;-72
2022/07/11 12:31:58;;;;;;;7.03;1.40;;;;;;;;;;5050730;28;20076;-71
2022/07/11 12:34:36;;;;;;;5.15;1.20;;;;;;;;;;5076287;28;20111;-72
2022/07/11 12:37:09;;;;;;;6.28;1.30;;;;;;;;;;5061521;28;20030;-72
2022/07/11 12:40:03;;;;;;;6.85;1.13;;;;;;;;;;5066338;28;20421;-70
2022/07/11 12:42:32;;;;;;;4.00;1.10;;;;;;;;;;5076350;28;20024;-70
2022/07/11 12:45:10;;;;;;;5.78;1.25;;;;;;;;;;5067520;27;20031;-69
2022/07/11 12:47:40;;;;;;;7.85;1.42;;;;;;;;;;5050106;28;20027;-70
2022/07/11 12:50:16;;;;;;;6.25;1.20;;;;;;;;;;5075102;27;20509;-72
2022/07/11 12:52:47;;;;;;;4.22;1.10;;;;;;;;;;5068499;27;20169;-73
2022/07/11 12:55:35;;;;;;;8.18;1.30;;;;;;;;;;5066671;27;20036;-70
2022/07/11 12:58:14;;;;;;;6.70;1.38;;;;;;;;;;5066688;28;20058;-71
2022/07/11 13:00:58;;;;;;;4.20;1.00;;;;;;;;;;5061693;27;20142;-73
2022/07/11 13:03:35;;;;;;;6.07;1.10;;;;;;;;;;5060633;28;20028;-72
2022/07/11 13:06:03;;;;;;;6.18;1.15;;;;;;;;;;5073288;27;20027;-72
2022/07/11 13:08:42;;;;;;;4.75;1.05;;;;;;;;;;5077078;28;20136;-72
2022/07/11 13:11:19;;;;;;;6.53;1.20;;;;;;;;;;5077203;28;20031;-70
2022/07/11 13:13:49;;;;;;;4.78;1.20;;;;;;;;;;5062821;27;20036;-71
2022/07/11 13:16:17;;;;;;;7.07;1.27;;;;;;;;;;5062627;28;20697;-70
2022/07/11 13:18:45;;;;;;;6.25;1.40;;;;;;;;;;5072344;28;20089;-73
2022/07/11 13:21:12;;;;;;;5.57;1.10;;;;;;;;;;5063999;28;20031;-72
2022/07/11 13:23:40;;;;;;;5.63;1.20;;;;;;;;;;5069512;28;20036;-72
2022/07/11 13:26:08;;;;;;;8.25;1.10;;;;;;;;;;5060102;27;20024;-72
2022/07/11 13:28:36;;;;;;;7.25;1.42;;;;;;;;;;5059803;28;20639;-72
2022/07/11 13:31:08;;;;;;;4.13;1.10;;;;;;;;;;5060576;28;20030;-72
2022/07/11 13:33:37;;;;;;;5.88;1.05;;;;;;;;;;5080430;27;20595;-71
2022/07/11 13:36:05;;;;;;;3.22;0.90;;;;;;;;;;5073154;28;20447;-72
2022/07/11 13:38:31;;;;;;;6.68;1.15;;;;;;;;;;5095091;28;21004;-72
2022/07/11 13:40:58;;;;;;;4.25;0.95;;;;;;;;;;5092549;28;20075;-75
2022/07/11 13:43:27;;;;;;;3.70;1.00;;;;;;;;;;5096750;28;20178;-74
2022/07/11 13:45:53;;;;;;;5.35;1.10;;;;;;;;;;5077747;28;20030;-74
2022/07/11 13:48:19;;;;;;;5.93;1.45;;;;;;;;;;5069749;28;20498;-74
2022/07/11 13:50:45;;;;;;;4.45;1.08;;;;;;;;;;5082109;27;20132;-74
2022/07/11 13:53:19;;;;;;;4.85;1.08;;;;;;;;;;5077800;28;20032;-74
2022/07/11 13:55:45;;;;;;;6.97;1.27;;;;;;;;;;5077155;28;20538;-74
2022/07/11 13:58:25;;;;;;;5.57;1.33;;;;;;;;;;5068802;28;20479;-74
2022/07/11 14:00:58;;;;;;;3.60;1.27;;;;;;;;;;5061346;28;20497;-74
2022/07/11 14:03:25;;;;;;;3.80;1.00;;;;;;;;;;5064859;28;20032;-74
2022/07/11 14:05:52;;;;;;;9.82;1.38;;;;;;;;;;5077674;28;20051;-75
2022/07/11 14:08:23;;;;;;;6.13;1.13;;;;;;;;;;5079914;27;20028;-75
2022/07/11 14:10:51;;;;;;;7.63;1.10;;;;;;;;;;5062262;28;20035;-74
2022/07/11 14:13:19;;;;;;;6.82;1.27;;;;;;;;;;5075405;28;20422;-74
2022/07/11 14:15:46;;;;;;;4.70;1.20;;;;;;;;;;5056027;28;20027;-74
2022/07/11 14:18:12;;;;;;;6.75;1.10;;;;;;;;;;5066878;28;20039;-76
2022/07/11 14:20:40;;;;;;;6.18;1.30;;;;;;;;;;5083276;27;20054;-75
2022/07/11 14:23:06;;;;;;;4.75;1.13;;;;;;;;;;5079193;27;20035;-74
2022/07/11 14:25:34;;;;;;;4.82;1.40;;;;;;;;;;5063927;28;20145;-73
2022/07/11 14:28:01;;;;;;;4.25;1.30;;;;;;;;;;5076145;28;20059;-75
2022/07/11 14:30:39;;;;;;;5.50;1.20;;;;;;;;;;5080704;28;20028;-75
2022/07/11 14:33:07;;;;;;;3.80;0.98;;;;;;;;;;5063593;28;20044;-74
2022/07/11 14:35:34;;;;;;;6.10;1.10;;;;;;;;;;5075060;28;20023;-75
2022/07/11 14:38:01;;;;;;;5.45;1.20;;;;;;;;;;5057540;28;20035;-75
2022/07/11 14:40:29;;;;;;;5.72;1.30;;;;;;;;;;5078221;27;20062;-74
2022/07/11 14:42:56;;;;;;;4.72;1.15;;;;;;;;;;5074991;28;20030;-74
2022/07/11 14:45:24;;;;;;;6.60;1.70;;;;;;;;;;5076692;28;20788;-74
2022/07/11 14:47:52;;;;;;;3.60;0.85;;;;;;;;;;5055861;28;20101;-75
2022/07/11 14:50:19;;;;;;;5.95;1.23;;;;;;;;;;5041239;28;20052;-75
2022/07/11 14:52:50;;;;;;;8.35;2.00;;;;;;;;;;5034208;28;20029;-74
2022/07/11 14:55:17;;;;;;;5.68;1.45;;;;;;;;;;5056151;28;20273;-75
2022/07/11 14:57:45;;;;;;;7.75;1.60;;;;;;;;;;5055585;28;20032;-75